This is the latest recevied weather packets stored in our database for station/object DC1RS. If no packets are shown the sender has not sent any weather packets the latest 10 day(s).
| Time | Temp. | Humidity | Pressure | Rain* | Wind** | Luminosity | Snow |
|---|---|---|---|---|---|---|---|
| 1777343561 | 7.78° C | 73% | 1018.5 hPa | 0 mm | - | 0 W/m² | - |
| 1777341561 | 7.78° C | 72% | 1018.5 hPa | 0 mm | - | 0 W/m² | - |
| 1777339970 | 8.33° C | 70% | 1018.5 hPa | 0 mm | - | 0 W/m² | - |
| 1777338111 | 8.33° C | 69% | 1018.2 hPa | 0 mm | - | 0 W/m² | - |
| 1777336521 | 8.33° C | 67% | 1018.5 hPa | 0 mm | - | 0 W/m² | - |
| 1777334202 | 8.89° C | 65% | 1018.7 hPa | 0 mm | - | 0 W/m² | - |
| 1777332582 | 10° C | 61% | 1018.3 hPa | 0 mm | - | 0 W/m² | - |
| 1777331622 | 10.56° C | 59% | 1018.5 hPa | 0 mm | - | 0 W/m² | - |
| 1777330030 | 11.11° C | 54% | 1018.3 hPa | 0 mm | - | 0 W/m² | - |
| 1777328441 | 12.22° C | 48% | 1018 hPa | 0 mm | - | 0 W/m² | - |
| 1777327010 | 12.78° C | 47% | 1018 hPa | 0 mm | - | 0 W/m² | - |
| 1777325390 | 12.22° C | 49% | 1017.9 hPa | 0 mm | - | 0 W/m² | - |
| 1777323801 | 12.22° C | 50% | 1018.2 hPa | 0 mm | - | 0 W/m² | - |
| 1777322210 | 12.22° C | 49% | 1018.3 hPa | 0 mm | - | 0 W/m² | - |
| 1777320401 | 12.78° C | 47% | 1018.3 hPa | 0 mm | - | 0 W/m² | - |
| 1777318842 | 13.33° C | 45% | 1018.5 hPa | 0 mm | - | 0 W/m² | - |
| 1777316181 | 14.44° C | 43% | 1018.3 hPa | 0 mm | - | 0 W/m² | - |
| 1777314621 | 15.56° C | 40% | 1018.2 hPa | 0 mm | - | 0 W/m² | - |
| 1777311802 | 17.22° C | 36% | 1018.3 hPa | 0 mm | - | 26 W/m² | - |
| 1777310211 | 17.78° C | 34% | 1018 hPa | 0 mm | - | 63 W/m² | - |
| 1777309611 | 17.78° C | 33% | 1018.4 hPa | 0 mm | - | 68 W/m² | - |
| 1777308681 | 18.33° C | 32% | 1018.3 hPa | 0 mm | - | 74 W/m² | - |
| 1777307121 | 18.89° C | 32% | 1018.4 hPa | 0 mm | - | 120 W/m² | - |
| 1777304301 | 19.44° C | 30% | 1018.8 hPa | 0 mm | - | 226 W/m² | - |
| 1777302741 | 20.56° C | 30% | 1019.1 hPa | 0 mm | - | 331 W/m² | - |
* Rain latest hour (hover to see other rain measurements)
** Current wind speed in m/s (hover to see current wind gust speed)